createdAt,value
2018-05-21T00:01:13.622Z,3.60
2018-05-21T00:03:41.499Z,3.80
2018-05-21T00:06:09.237Z,3.60
2018-05-21T00:08:37.037Z,4.07
2018-05-21T00:11:04.806Z,3.97
2018-05-21T00:13:32.683Z,3.57
2018-05-21T00:16:00.350Z,3.37
2018-05-21T00:18:28.120Z,3.87
2018-05-21T00:20:55.988Z,3.30
2018-05-21T00:23:23.751Z,3.27
2018-05-21T00:25:51.520Z,3.47
2018-05-21T00:28:19.293Z,3.30
2018-05-21T00:30:47.261Z,3.70
2018-05-21T00:33:15.142Z,3.63
2018-05-21T00:35:42.906Z,3.73
2018-05-21T00:38:10.574Z,3.50
2018-05-21T00:40:38.237Z,3.87
2018-05-21T00:43:05.996Z,3.90
2018-05-21T00:45:33.779Z,3.97
2018-05-21T00:48:01.443Z,3.90
2018-05-21T00:50:29.238Z,4.13
2018-05-21T00:52:56.979Z,3.87
2018-05-21T00:55:37.236Z,3.90
2018-05-21T00:58:05.998Z,4.10
2018-05-21T01:00:33.802Z,4.07
2018-05-21T01:03:01.676Z,3.97
2018-05-21T01:05:29.561Z,3.77
2018-05-21T01:07:57.306Z,4.07
2018-05-21T01:10:25.199Z,3.53
2018-05-21T01:12:53.045Z,3.50
2018-05-21T01:15:20.895Z,4.40
2018-05-21T01:17:48.689Z,3.73
2018-05-21T01:20:17.380Z,4.00
2018-05-21T01:22:45.151Z,3.77
2018-05-21T01:25:12.918Z,4.40
2018-05-21T01:27:40.689Z,3.90
2018-05-21T01:30:08.660Z,4.20
2018-05-21T01:32:36.436Z,4.00
2018-05-21T01:35:04.760Z,5.00
2018-05-21T01:37:32.398Z,4.70
2018-05-21T01:40:00.224Z,4.90
2018-05-21T01:42:28.027Z,4.87
2018-05-21T01:44:55.885Z,4.60
2018-05-21T01:47:23.649Z,5.00
2018-05-21T01:49:51.426Z,5.13
2018-05-21T01:52:19.300Z,5.53
2018-05-21T01:54:47.173Z,4.90
2018-05-21T01:57:14.943Z,4.80
2018-05-21T01:59:42.711Z,5.07
2018-05-21T02:02:10.536Z,5.40
2018-05-21T02:04:38.853Z,5.47
2018-05-21T02:07:06.601Z,5.87
2018-05-21T02:09:34.286Z,5.70
2018-05-21T02:12:01.988Z,5.40
2018-05-21T02:14:29.727Z,5.83
2018-05-21T02:16:57.600Z,5.87
2018-05-21T02:19:25.879Z,6.60
2018-05-21T02:21:53.748Z,6.07
2018-05-21T02:24:21.639Z,5.60
2018-05-21T02:26:49.280Z,5.63
2018-05-21T02:29:17.160Z,6.00
2018-05-21T02:31:45.032Z,5.90
2018-05-21T02:34:12.807Z,6.20
2018-05-21T02:36:40.565Z,6.00
2018-05-21T02:39:08.448Z,6.33
2018-05-21T02:41:36.306Z,5.97
2018-05-21T02:44:04.148Z,5.50
2018-05-21T02:46:32.056Z,6.40
2018-05-21T02:48:59.720Z,6.27
2018-05-21T02:51:27.386Z,5.73
2018-05-21T02:53:55.210Z,5.77
2018-05-21T02:56:22.920Z,5.77
2018-05-21T02:58:50.753Z,6.40
2018-05-21T03:01:18.566Z,6.17
2018-05-21T03:03:46.285Z,5.90
2018-05-21T03:06:14.109Z,6.40
2018-05-21T03:08:41.852Z,6.40
2018-05-21T03:11:09.654Z,6.30
2018-05-21T03:13:37.304Z,5.90
2018-05-21T03:16:05.077Z,5.90
2018-05-21T03:18:32.851Z,5.87
2018-05-21T03:21:00.547Z,5.23
2018-05-21T03:23:28.267Z,5.83
2018-05-21T03:25:56.152Z,5.63
2018-05-21T03:28:24.033Z,5.90
2018-05-21T03:30:52.713Z,5.30
2018-05-21T03:33:22.984Z,5.50
2018-05-21T03:35:51.295Z,5.33
2018-05-21T03:38:19.197Z,5.00
2018-05-21T03:40:47.066Z,5.30
2018-05-21T03:43:14.736Z,6.10
2018-05-21T03:45:42.504Z,5.63
2018-05-21T03:48:10.169Z,4.93
2018-05-21T03:50:38.042Z,4.97
2018-05-21T03:53:05.909Z,5.03
2018-05-21T03:55:33.781Z,5.17
2018-05-21T03:58:01.451Z,5.43
2018-05-21T04:00:40.981Z,5.10
2018-05-21T04:03:20.621Z,5.73
2018-05-21T04:05:48.395Z,5.80
2018-05-21T04:08:16.055Z,5.70
2018-05-21T04:10:43.831Z,5.33
2018-05-21T04:13:11.694Z,5.33
2018-05-21T04:15:39.477Z,5.70
2018-05-21T04:18:07.300Z,5.93
2018-05-21T04:20:35.207Z,6.40
2018-05-21T04:23:02.979Z,5.93
2018-05-21T04:25:30.723Z,6.23
2018-05-21T04:27:58.514Z,6.40
2018-05-21T04:30:26.280Z,6.40
2018-05-21T04:32:54.053Z,6.37
2018-05-21T04:35:22.074Z,6.77
2018-05-21T04:37:49.791Z,7.37
2018-05-21T04:40:17.465Z,6.60
2018-05-21T04:42:45.358Z,6.10
2018-05-21T04:45:13.107Z,6.33
2018-05-21T04:47:40.977Z,6.33
2018-05-21T04:50:08.949Z,6.17
2018-05-21T04:52:36.599Z,6.90
2018-05-21T04:55:04.491Z,7.27
2018-05-21T04:57:32.433Z,8.57
2018-05-21T05:00:00.152Z,9.63
2018-05-21T05:02:27.992Z,9.60
2018-05-21T05:04:55.870Z,10.50
2018-05-21T05:07:24.552Z,10.50
2018-05-21T05:09:52.435Z,11.07
2018-05-21T05:12:20.133Z,10.83
2018-05-21T05:14:48.294Z,10.20
2018-05-21T05:17:16.151Z,10.23
2018-05-21T05:19:43.965Z,9.87
2018-05-21T05:22:11.778Z,9.87
2018-05-21T05:24:39.429Z,9.73
2018-05-21T05:27:07.321Z,9.57
2018-05-21T05:29:35.137Z,9.50
2018-05-21T05:32:02.963Z,9.60
2018-05-21T05:34:30.743Z,9.17
2018-05-21T05:36:58.404Z,8.90
2018-05-21T05:39:26.140Z,8.37
2018-05-21T05:41:53.924Z,8.47
2018-05-21T05:44:21.703Z,8.20
2018-05-21T05:46:49.574Z,7.80
2018-05-21T05:49:17.446Z,6.90
2018-05-21T05:51:45.228Z,7.23
2018-05-21T05:54:12.987Z,7.07
2018-05-21T05:56:40.862Z,6.33
2018-05-21T05:59:08.521Z,5.70
2018-05-21T06:01:36.312Z,5.63
2018-05-21T06:04:04.262Z,5.80
2018-05-21T06:06:32.099Z,4.80
2018-05-21T06:08:59.921Z,4.83
2018-05-21T06:11:28.303Z,4.70
2018-05-21T06:13:56.161Z,4.63
2018-05-21T06:16:23.928Z,4.37
2018-05-21T06:18:51.712Z,4.20
2018-05-21T06:21:19.567Z,4.10
2018-05-21T06:23:47.437Z,3.97
2018-05-21T06:26:15.231Z,4.10
2018-05-21T06:41:49.914Z,4.03
2018-05-21T06:44:17.686Z,3.93
2018-05-21T06:46:45.495Z,5.37
2018-05-21T06:49:13.331Z,4.60
2018-05-21T06:51:40.988Z,3.27
2018-05-21T06:54:08.678Z,3.27
2018-05-21T06:56:37.009Z,3.57
2018-05-21T06:59:04.911Z,3.80
2018-05-21T07:01:32.573Z,3.80
2018-05-21T07:04:00.370Z,3.70
2018-05-21T07:06:28.224Z,3.33
2018-05-21T07:08:55.960Z,5.97
2018-05-21T07:11:23.713Z,3.37
2018-05-21T07:13:51.524Z,3.83
2018-05-21T07:16:19.195Z,5.78
2018-05-21T07:18:47.065Z,3.50
2018-05-21T07:21:14.859Z,3.20
2018-05-21T07:23:43.334Z,2.80
2018-05-21T07:26:12.227Z,3.20
2018-05-21T07:28:39.882Z,3.23
2018-05-21T07:31:07.742Z,2.90
2018-05-21T07:33:35.523Z,3.33
2018-05-21T07:36:03.275Z,3.40
2018-05-21T07:38:31.164Z,2.97
2018-05-21T07:40:59.138Z,3.30
2018-05-21T07:43:26.927Z,3.00
2018-05-21T07:45:54.775Z,3.57
2018-05-21T07:48:22.652Z,3.43
2018-05-21T07:50:50.418Z,3.50
2018-05-21T07:53:18.197Z,3.30
2018-05-21T07:55:45.951Z,3.93
2018-05-21T07:58:13.629Z,4.07
2018-05-21T08:00:41.272Z,4.47
2018-05-21T08:03:09.153Z,3.90
2018-05-21T08:05:37.523Z,3.63
2018-05-21T08:08:05.369Z,4.20
2018-05-21T08:10:33.286Z,3.13
2018-05-21T08:13:01.262Z,3.57
2018-05-21T08:15:29.101Z,4.10
2018-05-21T08:17:56.887Z,3.40
2018-05-21T08:20:24.671Z,3.40
2018-05-21T08:22:52.425Z,3.23
2018-05-21T08:25:20.312Z,3.50
2018-05-21T08:27:48.293Z,3.20
2018-05-21T08:30:16.053Z,2.90
2018-05-21T08:32:43.924Z,2.60
2018-05-21T08:35:11.994Z,2.97
2018-05-21T08:37:39.797Z,2.30
2018-05-21T08:40:07.637Z,2.80
2018-05-21T08:42:35.657Z,3.10
2018-05-21T08:45:03.587Z,3.13
2018-05-21T08:47:31.758Z,2.30
2018-05-21T08:49:59.783Z,2.60
2018-05-21T08:52:27.745Z,2.50
2018-05-21T08:54:55.578Z,2.80
2018-05-21T08:57:23.503Z,2.30
2018-05-21T08:59:51.214Z,2.40
2018-05-21T09:02:18.991Z,2.60
2018-05-21T09:04:46.734Z,2.37
2018-05-21T09:07:14.423Z,2.07
2018-05-21T09:09:42.293Z,2.40
2018-05-21T09:12:10.166Z,2.43
2018-05-21T09:14:38.047Z,2.50
2018-05-21T09:17:06.115Z,2.60
2018-05-21T09:19:33.806Z,2.20
2018-05-21T09:22:01.481Z,2.70
2018-05-21T09:24:29.421Z,2.30
2018-05-21T09:26:57.389Z,2.37
2018-05-21T09:29:25.063Z,2.60
2018-05-21T09:31:52.861Z,2.53
2018-05-21T09:34:20.757Z,2.20
2018-05-21T09:36:48.465Z,2.17
2018-05-21T09:39:16.213Z,2.67
2018-05-21T09:41:44.925Z,2.23
2018-05-21T09:44:13.224Z,2.40
2018-05-21T09:46:41.081Z,2.20
2018-05-21T09:49:08.859Z,2.23
2018-05-21T09:51:36.928Z,2.30
2018-05-21T09:54:04.903Z,2.33
2018-05-21T09:56:33.593Z,2.80
2018-05-21T09:59:01.461Z,2.70
2018-05-21T10:01:29.336Z,2.43
2018-05-21T10:03:57.197Z,2.43
2018-05-21T10:06:24.876Z,2.40
2018-05-21T10:08:52.792Z,2.90
2018-05-21T10:11:20.607Z,2.60
2018-05-21T10:13:48.478Z,2.80
2018-05-21T10:16:16.248Z,2.37
2018-05-21T10:18:44.847Z,2.53
2018-05-21T10:21:12.712Z,2.77
2018-05-21T10:23:40.649Z,2.43
2018-05-21T10:26:08.641Z,2.37
2018-05-21T10:28:37.075Z,2.57
2018-05-21T10:31:05.015Z,2.50
2018-05-21T10:33:32.786Z,2.30
2018-05-21T10:36:00.558Z,2.53
2018-05-21T10:38:28.528Z,2.83
2018-05-21T10:40:56.394Z,2.77
2018-05-21T10:43:24.066Z,2.53
2018-05-21T10:45:51.944Z,2.50
2018-05-21T10:48:19.815Z,2.97
2018-05-21T10:50:47.584Z,2.77
2018-05-21T10:53:15.349Z,2.60
2018-05-21T10:55:43.135Z,2.70
2018-05-21T10:58:10.983Z,2.30
2018-05-21T11:00:38.962Z,2.93
2018-05-21T11:03:06.937Z,2.50
2018-05-21T11:05:34.809Z,2.50
2018-05-21T11:08:02.635Z,2.97
2018-05-21T11:10:30.388Z,2.63
2018-05-21T11:12:58.215Z,2.50
2018-05-21T11:15:25.993Z,7.50
2018-05-21T11:17:54.895Z,9.50
2018-05-21T11:20:24.606Z,18.60
2018-05-21T11:22:52.384Z,7.53
2018-05-21T11:25:20.128Z,12.80
2018-05-21T11:27:48.041Z,8.80
2018-05-21T11:30:15.796Z,4.80
2018-05-21T11:32:43.637Z,6.50
2018-05-21T11:35:11.450Z,4.13
2018-05-21T11:37:39.276Z,3.83
2018-05-21T11:40:07.044Z,3.97
2018-05-21T11:42:34.807Z,3.40
2018-05-21T11:45:02.691Z,3.20
2018-05-21T11:47:30.441Z,3.63
2018-05-21T11:49:58.231Z,6.40
2018-05-21T11:52:26.214Z,2.83
2018-05-21T11:54:53.985Z,3.20
2018-05-21T11:57:21.832Z,3.03
2018-05-21T11:59:49.596Z,2.47
2018-05-21T12:02:17.375Z,2.70
2018-05-21T12:04:45.246Z,2.80
2018-05-21T12:07:13.186Z,2.80
2018-05-21T12:09:41.089Z,2.70
2018-05-21T12:12:08.921Z,4.15
2018-05-21T12:14:36.827Z,5.10
2018-05-21T12:17:04.600Z,3.10
2018-05-21T12:19:32.374Z,3.07
2018-05-21T12:22:00.439Z,2.87
2018-05-21T12:24:28.312Z,2.95
2018-05-21T12:26:56.206Z,2.30
2018-05-21T12:29:24.118Z,2.70
2018-05-21T12:31:51.933Z,2.50
2018-05-21T12:34:19.842Z,2.62
2018-05-21T12:36:47.785Z,2.70
2018-05-21T12:39:15.647Z,3.10
2018-05-21T12:41:43.476Z,4.20
2018-05-21T12:44:11.352Z,2.65
2018-05-21T12:46:39.162Z,2.80
2018-05-21T12:49:07.135Z,2.78
2018-05-21T12:51:35.004Z,3.23
2018-05-21T12:54:02.742Z,3.03
2018-05-21T12:56:30.742Z,2.50
2018-05-21T12:58:58.626Z,2.60
2018-05-21T13:01:26.499Z,2.43
2018-05-21T13:03:54.257Z,2.30
2018-05-21T13:06:22.024Z,2.40
2018-05-21T13:08:49.810Z,4.63
2018-05-21T13:11:17.573Z,3.43
2018-05-21T13:13:45.437Z,2.60
2018-05-21T13:16:13.101Z,2.60
2018-05-21T13:18:40.873Z,2.50
2018-05-21T13:21:08.739Z,2.60
2018-05-21T13:23:36.614Z,2.50
2018-05-21T13:26:04.484Z,2.90
2018-05-21T13:28:33.075Z,2.53
2018-05-21T13:31:01.043Z,2.60
2018-05-21T13:33:28.917Z,2.80
2018-05-21T13:35:56.784Z,2.47
2018-05-21T13:38:24.575Z,2.40
2018-05-21T13:40:52.426Z,2.20
2018-05-21T13:43:20.404Z,2.20
2018-05-21T13:45:47.959Z,2.53
2018-05-21T13:48:15.845Z,2.77
2018-05-21T13:50:43.651Z,2.27
2018-05-21T13:53:11.353Z,2.20
2018-05-21T13:55:39.142Z,2.40
2018-05-21T13:58:07.118Z,2.70
2018-05-21T14:00:34.885Z,2.47
2018-05-21T14:03:02.756Z,2.62
2018-05-21T14:05:30.474Z,3.10
2018-05-21T14:07:58.301Z,3.25
2018-05-21T14:10:26.170Z,3.22
2018-05-21T14:12:54.040Z,2.65
2018-05-21T14:15:21.920Z,2.45
2018-05-21T14:17:49.860Z,2.50
2018-05-21T14:20:17.757Z,2.63
2018-05-21T14:22:45.645Z,2.30
2018-05-21T14:25:13.435Z,2.40
2018-05-21T14:27:41.364Z,2.22
2018-05-21T14:30:09.130Z,2.57
2018-05-21T14:32:36.915Z,2.42
2018-05-21T14:35:04.796Z,2.37
2018-05-21T14:37:32.440Z,2.50
2018-05-21T14:40:00.212Z,2.60
2018-05-21T14:42:28.101Z,2.50
2018-05-21T14:44:55.853Z,2.17
2018-05-21T14:47:23.635Z,2.67
2018-05-21T14:49:51.391Z,2.40
2018-05-21T14:52:19.161Z,2.37
2018-05-21T14:54:46.938Z,2.30
2018-05-21T14:57:14.723Z,2.33
2018-05-21T14:59:42.564Z,2.40
2018-05-21T15:02:10.403Z,2.50
2018-05-21T15:04:38.110Z,2.25
2018-05-21T15:07:05.940Z,2.30
2018-05-21T15:09:33.873Z,2.30
2018-05-21T15:12:01.658Z,2.20
2018-05-21T15:14:29.447Z,2.10
2018-05-21T15:16:57.287Z,2.40
2018-05-21T15:19:25.184Z,2.28
2018-05-21T15:21:52.911Z,2.50
2018-05-21T15:24:20.715Z,2.30
2018-05-21T15:26:48.540Z,2.40
2018-05-21T15:29:17.638Z,2.40
2018-05-21T15:31:46.327Z,2.20
2018-05-21T15:34:14.295Z,2.20
2018-05-21T15:36:42.380Z,2.47
2018-05-21T15:39:10.250Z,2.08
2018-05-21T15:41:38.018Z,2.10
2018-05-21T15:44:05.661Z,2.70
2018-05-21T15:46:33.552Z,2.47
2018-05-21T15:49:01.390Z,1.85
2018-05-21T15:51:29.135Z,2.50
2018-05-21T15:53:56.903Z,2.28
2018-05-21T15:56:24.635Z,2.33
2018-05-21T15:58:52.393Z,2.30
2018-05-21T16:01:20.067Z,2.40
2018-05-21T16:03:47.944Z,2.30
2018-05-21T16:06:15.810Z,2.67
2018-05-21T16:08:43.661Z,2.50
2018-05-21T16:11:11.459Z,2.35
2018-05-21T16:13:39.220Z,2.72
2018-05-21T16:16:06.982Z,2.50
2018-05-21T16:18:34.850Z,2.40
2018-05-21T16:21:02.742Z,2.70
2018-05-21T16:23:30.495Z,2.78
2018-05-21T16:25:59.181Z,2.80
2018-05-21T16:28:26.961Z,2.95
2018-05-21T16:30:54.828Z,2.30
2018-05-21T16:33:22.799Z,2.60
2018-05-21T16:35:50.675Z,2.28
2018-05-21T16:38:18.439Z,2.22
2018-05-21T16:40:47.309Z,2.53
2018-05-21T16:43:15.098Z,2.55
2018-05-21T16:45:42.968Z,2.45
2018-05-21T16:48:10.840Z,2.22
2018-05-21T16:50:38.525Z,2.70
2018-05-21T16:53:07.409Z,2.45
2018-05-21T16:55:35.434Z,2.45
2018-05-21T16:58:03.253Z,2.60
2018-05-21T17:00:31.091Z,2.30
2018-05-21T17:02:58.807Z,2.55
2018-05-21T17:05:26.664Z,2.35
2018-05-21T17:07:54.430Z,2.60
2018-05-21T17:10:22.206Z,2.50
2018-05-21T17:12:49.970Z,2.80
2018-05-21T17:15:17.742Z,2.85
2018-05-21T17:35:10.836Z,2.90
2018-05-21T17:37:38.710Z,3.03
2018-05-21T17:40:06.586Z,3.03
2018-05-21T17:42:34.561Z,2.80
2018-05-21T17:45:02.534Z,3.10
2018-05-21T17:47:30.801Z,2.93
2018-05-21T17:49:58.684Z,2.73
2018-05-21T17:52:26.553Z,2.97
2018-05-21T17:54:55.171Z,3.00
2018-05-21T17:57:22.902Z,3.00
2018-05-21T17:59:50.647Z,3.00
2018-05-21T18:02:18.338Z,2.87
2018-05-21T18:04:46.221Z,3.37
2018-05-21T18:07:14.086Z,3.13
2018-05-21T18:09:42.058Z,3.10
2018-05-21T18:12:09.930Z,3.10
2018-05-21T18:14:37.893Z,3.10
2018-05-21T18:17:07.828Z,3.00
2018-05-21T18:19:35.657Z,3.07
2018-05-21T18:22:03.431Z,3.50
2018-05-21T18:24:31.185Z,4.63
2018-05-21T18:26:59.154Z,5.10
2018-05-21T18:29:26.979Z,4.40
2018-05-21T18:31:54.844Z,4.10
2018-05-21T18:34:22.718Z,4.97
2018-05-21T18:36:50.376Z,4.30
2018-05-21T18:39:18.193Z,4.33
2018-05-21T18:41:46.025Z,4.80
2018-05-21T18:44:13.912Z,5.40
2018-05-21T18:46:43.304Z,5.73
2018-05-21T18:49:11.106Z,7.00
2018-05-21T18:51:38.945Z,5.13
2018-05-21T18:54:06.815Z,4.70
2018-05-21T18:56:34.576Z,4.40
2018-05-21T18:59:02.446Z,3.87
2018-05-21T19:01:30.433Z,3.63
2018-05-21T19:03:58.189Z,3.80
2018-05-21T19:06:25.859Z,3.90
2018-05-21T19:08:54.347Z,3.50
2018-05-21T19:11:22.111Z,3.80
2018-05-21T19:13:49.800Z,4.07
2018-05-21T19:16:17.654Z,3.77
2018-05-21T19:18:45.522Z,3.70
2018-05-21T19:21:13.391Z,4.10
2018-05-21T19:23:41.166Z,3.97
2018-05-21T19:26:09.054Z,4.20
2018-05-21T19:28:36.825Z,4.30
2018-05-21T19:31:04.577Z,3.90
2018-05-21T19:33:32.346Z,3.90
2018-05-21T19:36:01.038Z,3.90
2018-05-21T19:38:28.900Z,4.00
2018-05-21T19:40:56.778Z,4.60
2018-05-21T19:43:24.540Z,9.97
2018-05-21T19:45:52.382Z,9.27
2018-05-21T19:48:20.280Z,8.90
2018-05-21T19:50:48.663Z,8.00
2018-05-21T19:53:16.484Z,6.33
2018-05-21T19:55:44.298Z,5.27
2018-05-21T19:58:12.059Z,5.23
2018-05-21T20:00:39.854Z,4.53
2018-05-21T20:03:07.933Z,4.70
2018-05-21T20:05:35.827Z,5.77
2018-05-21T20:08:03.659Z,4.87
2018-05-21T20:10:31.528Z,5.43
2018-05-21T20:12:59.416Z,5.33
2018-05-21T20:15:28.099Z,5.53
2018-05-21T20:17:55.967Z,5.17
2018-05-21T20:20:35.612Z,5.70
2018-05-21T20:23:03.375Z,4.80
2018-05-21T20:25:31.247Z,5.73
2018-05-21T20:27:59.068Z,5.70
2018-05-21T20:30:27.113Z,5.97
2018-05-21T20:32:54.973Z,5.27
2018-05-21T20:35:22.840Z,5.60
2018-05-21T20:37:50.757Z,5.40
2018-05-21T20:40:18.561Z,5.80
2018-05-21T20:42:46.350Z,6.10
2018-05-21T20:45:15.027Z,6.87
2018-05-21T20:47:42.809Z,7.27
2018-05-21T20:50:10.678Z,6.70
2018-05-21T20:52:40.128Z,6.20
2018-05-21T20:55:08.463Z,7.13
2018-05-21T20:57:36.233Z,7.73
2018-05-21T21:00:04.823Z,7.70
2018-05-21T21:02:32.542Z,7.73
2018-05-21T21:05:00.250Z,7.70
2018-05-21T21:07:28.129Z,8.00
2018-05-21T21:09:56.023Z,7.57
2018-05-21T21:12:23.871Z,7.87
2018-05-21T21:14:51.842Z,8.17
2018-05-21T21:17:19.594Z,6.97
2018-05-21T21:19:47.873Z,7.47
2018-05-21T21:22:15.765Z,7.65
2018-05-21T21:24:43.535Z,8.83
2018-05-21T21:27:11.413Z,8.27
2018-05-21T21:29:39.230Z,6.47
2018-05-21T21:32:06.944Z,6.73
2018-05-21T21:34:34.825Z,6.57
2018-05-21T21:37:02.678Z,6.70
2018-05-21T21:39:30.453Z,5.70
2018-05-21T21:41:58.227Z,5.28
2018-05-21T21:44:25.991Z,5.60
2018-05-21T21:46:53.744Z,6.27
2018-05-21T21:49:21.423Z,6.70
2018-05-21T21:51:49.297Z,6.33
2018-05-21T21:54:17.072Z,7.10
2018-05-21T21:56:45.755Z,7.30
2018-05-21T21:59:13.526Z,6.70
2018-05-21T22:01:41.396Z,7.17
2018-05-21T22:04:09.057Z,7.90
2018-05-21T22:06:36.939Z,7.17
2018-05-21T22:09:05.533Z,7.80
2018-05-21T22:11:33.297Z,7.93
2018-05-21T22:14:01.042Z,8.20
2018-05-21T22:16:28.780Z,10.03
2018-05-21T22:18:56.494Z,8.83
2018-05-21T22:21:24.476Z,9.60
2018-05-21T22:23:52.131Z,9.60
2018-05-21T22:26:19.921Z,9.10
2018-05-21T22:28:47.674Z,9.50
2018-05-21T22:31:16.055Z,9.07
2018-05-21T22:33:44.852Z,9.53
2018-05-21T22:36:12.601Z,9.43
2018-05-21T22:38:40.461Z,9.90
2018-05-21T22:41:08.681Z,11.03
2018-05-21T22:43:36.543Z,11.70
2018-05-21T22:46:04.418Z,11.43
2018-05-21T22:48:32.273Z,10.83
2018-05-21T22:50:59.994Z,10.83
2018-05-21T22:53:27.728Z,11.30
2018-05-21T22:55:55.586Z,11.50
2018-05-21T22:58:23.454Z,12.10
2018-05-21T23:00:51.126Z,12.87
2018-05-21T23:03:18.895Z,12.27
2018-05-21T23:05:46.765Z,12.30
2018-05-21T23:08:14.527Z,12.27
2018-05-21T23:10:42.408Z,12.13
2018-05-21T23:13:10.242Z,11.73
2018-05-21T23:15:37.988Z,11.20
2018-05-21T23:18:05.877Z,11.53
2018-05-21T23:20:33.682Z,12.47
2018-05-21T23:23:01.415Z,11.57
2018-05-21T23:25:29.204Z,11.13
2018-05-21T23:27:57.075Z,12.33
2018-05-21T23:30:24.866Z,11.80
2018-05-21T23:32:52.736Z,11.53
2018-05-21T23:35:20.508Z,12.13
2018-05-21T23:37:48.169Z,11.77
2018-05-21T23:40:16.038Z,11.57
2018-05-21T23:42:43.812Z,12.00
2018-05-21T23:45:11.681Z,11.83
2018-05-21T23:47:39.549Z,12.50
2018-05-21T23:50:07.223Z,11.73
2018-05-21T23:52:34.992Z,11.97
2018-05-21T23:55:02.807Z,11.93
2018-05-21T23:57:30.577Z,11.60
2018-05-21T23:59:58.293Z,12.70
